sensor_id;sensor_type;location;lat;lon;timestamp;P1;durP1;ratioP1;P2;durP2;ratioP2
65037;SDS011;51605;47.040;15.294;2024-02-26T00:01:39;239.18;;;221.90;;
65037;SDS011;51605;47.040;15.294;2024-02-26T00:04:05;211.70;;;197.43;;
65037;SDS011;51605;47.040;15.294;2024-02-26T00:06:31;220.23;;;205.95;;
65037;SDS011;51605;47.040;15.294;2024-02-26T00:08:57;184.13;;;171.27;;
65037;SDS011;51605;47.040;15.294;2024-02-26T00:11:23;212.93;;;197.50;;
65037;SDS011;51605;47.040;15.294;2024-02-26T00:13:49;213.45;;;199.20;;
65037;SDS011;51605;47.040;15.294;2024-02-26T00:16:14;182.93;;;170.63;;
65037;SDS011;51605;47.040;15.294;2024-02-26T00:18:40;196.35;;;182.77;;
65037;SDS011;51605;47.040;15.294;2024-02-26T00:21:06;203.48;;;189.95;;
65037;SDS011;51605;47.040;15.294;2024-02-26T00:23:31;239.10;;;222.35;;
65037;SDS011;51605;47.040;15.294;2024-02-26T00:25:57;185.40;;;172.80;;
65037;SDS011;51605;47.040;15.294;2024-02-26T00:28:23;229.82;;;214.38;;
65037;SDS011;51605;47.040;15.294;2024-02-26T00:30:49;241.45;;;225.40;;
65037;SDS011;51605;47.040;15.294;2024-02-26T00:33:21;184.18;;;171.93;;
65037;SDS011;51605;47.040;15.294;2024-02-26T00:35:47;238.82;;;222.43;;
65037;SDS011;51605;47.040;15.294;2024-02-26T00:38:13;219.38;;;204.55;;
65037;SDS011;51605;47.040;15.294;2024-02-26T00:40:39;251.38;;;234.85;;
65037;SDS011;51605;47.040;15.294;2024-02-26T00:43:05;229.90;;;213.13;;
65037;SDS011;51605;47.040;15.294;2024-02-26T00:45:31;239.57;;;223.85;;
65037;SDS011;51605;47.040;15.294;2024-02-26T00:47:58;243.52;;;226.70;;
65037;SDS011;51605;47.040;15.294;2024-02-26T00:50:26;231.57;;;214.77;;
65037;SDS011;51605;47.040;15.294;2024-02-26T00:52:52;238.20;;;222.18;;
65037;SDS011;51605;47.040;15.294;2024-02-26T00:55:17;207.57;;;193.23;;
65037;SDS011;51605;47.040;15.294;2024-02-26T00:57:43;232.02;;;209.85;;
65037;SDS011;51605;47.040;15.294;2024-02-26T01:00:09;274.40;;;252.65;;
65037;SDS011;51605;47.040;15.294;2024-02-26T01:02:35;235.27;;;216.98;;
65037;SDS011;51605;47.040;15.294;2024-02-26T01:05:00;243.85;;;223.48;;
65037;SDS011;51605;47.040;15.294;2024-02-26T01:07:26;272.60;;;249.00;;
65037;SDS011;51605;47.040;15.294;2024-02-26T01:09:51;251.82;;;228.07;;
65037;SDS011;51605;47.040;15.294;2024-02-26T01:12:17;233.15;;;218.10;;
65037;SDS011;51605;47.040;15.294;2024-02-26T01:14:43;246.57;;;230.00;;
65037;SDS011;51605;47.040;15.294;2024-02-26T01:17:08;234.73;;;218.00;;
65037;SDS011;51605;47.040;15.294;2024-02-26T01:19:34;268.55;;;250.43;;
65037;SDS011;51605;47.040;15.294;2024-02-26T01:21:59;236.30;;;219.95;;
65037;SDS011;51605;47.040;15.294;2024-02-26T01:24:25;250.40;;;233.13;;
65037;SDS011;51605;47.040;15.294;2024-02-26T01:26:51;245.48;;;229.35;;
65037;SDS011;51605;47.040;15.294;2024-02-26T01:29:16;256.77;;;239.45;;
65037;SDS011;51605;47.040;15.294;2024-02-26T01:31:42;227.98;;;212.35;;
65037;SDS011;51605;47.040;15.294;2024-02-26T01:34:08;233.93;;;217.00;;
65037;SDS011;51605;47.040;15.294;2024-02-26T01:36:33;220.25;;;205.35;;
65037;SDS011;51605;47.040;15.294;2024-02-26T01:38:59;229.90;;;213.68;;
65037;SDS011;51605;47.040;15.294;2024-02-26T01:41:25;249.30;;;229.07;;
65037;SDS011;51605;47.040;15.294;2024-02-26T01:43:50;242.70;;;226.18;;
65037;SDS011;51605;47.040;15.294;2024-02-26T01:46:16;280.60;;;260.77;;
65037;SDS011;51605;47.040;15.294;2024-02-26T01:48:43;225.73;;;210.43;;
65037;SDS011;51605;47.040;15.294;2024-02-26T01:51:10;230.48;;;215.05;;
65037;SDS011;51605;47.040;15.294;2024-02-26T01:53:38;254.90;;;237.68;;
65037;SDS011;51605;47.040;15.294;2024-02-26T01:56:04;280.45;;;247.20;;
65037;SDS011;51605;47.040;15.294;2024-02-26T01:58:30;257.85;;;237.32;;
65037;SDS011;51605;47.040;15.294;2024-02-26T02:00:56;251.35;;;234.15;;
65037;SDS011;51605;47.040;15.294;2024-02-26T02:03:23;248.25;;;231.00;;
65037;SDS011;51605;47.040;15.294;2024-02-26T02:05:48;241.63;;;224.70;;
65037;SDS011;51605;47.040;15.294;2024-02-26T02:08:14;252.15;;;234.48;;
65037;SDS011;51605;47.040;15.294;2024-02-26T02:10:41;272.63;;;254.52;;
65037;SDS011;51605;47.040;15.294;2024-02-26T02:13:07;228.02;;;211.50;;
65037;SDS011;51605;47.040;15.294;2024-02-26T02:15:32;298.67;;;273.85;;
65037;SDS011;51605;47.040;15.294;2024-02-26T02:17:58;257.38;;;238.80;;
65037;SDS011;51605;47.040;15.294;2024-02-26T02:20:25;263.45;;;245.10;;
65037;SDS011;51605;47.040;15.294;2024-02-26T02:22:58;281.85;;;262.52;;
65037;SDS011;51605;47.040;15.294;2024-02-26T02:25:23;270.33;;;249.55;;
65037;SDS011;51605;47.040;15.294;2024-02-26T02:27:49;294.63;;;261.30;;
65037;SDS011;51605;47.040;15.294;2024-02-26T02:30:15;271.50;;;249.45;;
65037;SDS011;51605;47.040;15.294;2024-02-26T02:32:41;294.88;;;263.85;;
65037;SDS011;51605;47.040;15.294;2024-02-26T02:35:07;253.82;;;234.10;;
65037;SDS011;51605;47.040;15.294;2024-02-26T02:37:33;286.63;;;264.15;;
65037;SDS011;51605;47.040;15.294;2024-02-26T02:39:59;325.02;;;296.42;;
65037;SDS011;51605;47.040;15.294;2024-02-26T02:42:25;227.27;;;210.60;;
65037;SDS011;51605;47.040;15.294;2024-02-26T02:44:51;293.13;;;271.48;;
65037;SDS011;51605;47.040;15.294;2024-02-26T02:47:16;291.95;;;261.80;;
65037;SDS011;51605;47.040;15.294;2024-02-26T02:49:42;265.88;;;247.77;;
65037;SDS011;51605;47.040;15.294;2024-02-26T02:52:08;285.75;;;260.70;;
65037;SDS011;51605;47.040;15.294;2024-02-26T02:54:33;306.13;;;281.65;;
65037;SDS011;51605;47.040;15.294;2024-02-26T02:56:59;296.13;;;275.75;;
65037;SDS011;51605;47.040;15.294;2024-02-26T02:59:25;258.33;;;239.32;;
65037;SDS011;51605;47.040;15.294;2024-02-26T03:01:50;266.77;;;248.48;;
65037;SDS011;51605;47.040;15.294;2024-02-26T03:04:17;419.97;;;315.60;;
65037;SDS011;51605;47.040;15.294;2024-02-26T03:06:42;305.63;;;283.65;;
65037;SDS011;51605;47.040;15.294;2024-02-26T03:09:08;281.52;;;256.10;;
65037;SDS011;51605;47.040;15.294;2024-02-26T03:11:34;290.15;;;270.48;;
65037;SDS011;51605;47.040;15.294;2024-02-26T03:14:00;292.92;;;271.25;;
65037;SDS011;51605;47.040;15.294;2024-02-26T03:16:25;270.88;;;249.07;;
65037;SDS011;51605;47.040;15.294;2024-02-26T03:18:51;319.92;;;289.95;;
65037;SDS011;51605;47.040;15.294;2024-02-26T03:21:17;286.35;;;264.52;;
65037;SDS011;51605;47.040;15.294;2024-02-26T03:23:43;358.53;;;266.47;;
65037;SDS011;51605;47.040;15.294;2024-02-26T03:26:09;297.35;;;276.30;;
65037;SDS011;51605;47.040;15.294;2024-02-26T03:28:38;330.73;;;299.63;;
65037;SDS011;51605;47.040;15.294;2024-02-26T03:31:04;346.58;;;318.55;;
65037;SDS011;51605;47.040;15.294;2024-02-26T03:33:29;341.90;;;312.45;;
65037;SDS011;51605;47.040;15.294;2024-02-26T03:35:55;374.65;;;299.35;;
65037;SDS011;51605;47.040;15.294;2024-02-26T03:38:21;291.88;;;266.75;;
65037;SDS011;51605;47.040;15.294;2024-02-26T03:40:47;316.13;;;289.88;;
65037;SDS011;51605;47.040;15.294;2024-02-26T03:43:12;322.20;;;293.60;;
65037;SDS011;51605;47.040;15.294;2024-02-26T03:45:38;426.33;;;374.45;;
65037;SDS011;51605;47.040;15.294;2024-02-26T03:48:04;345.45;;;294.42;;
65037;SDS011;51605;47.040;15.294;2024-02-26T03:50:30;336.77;;;305.07;;
65037;SDS011;51605;47.040;15.294;2024-02-26T03:52:56;394.52;;;356.02;;
65037;SDS011;51605;47.040;15.294;2024-02-26T03:55:22;322.98;;;284.75;;
65037;SDS011;51605;47.040;15.294;2024-02-26T03:57:50;266.23;;;244.27;;
65037;SDS011;51605;47.040;15.294;2024-02-26T04:00:19;350.17;;;289.02;;
65037;SDS011;51605;47.040;15.294;2024-02-26T04:02:46;336.35;;;293.35;;
65037;SDS011;51605;47.040;15.294;2024-02-26T04:05:12;346.10;;;312.92;;
65037;SDS011;51605;47.040;15.294;2024-02-26T04:07:39;310.83;;;279.25;;
65037;SDS011;51605;47.040;15.294;2024-02-26T04:10:08;370.05;;;318.48;;
65037;SDS011;51605;47.040;15.294;2024-02-26T04:15:00;400.63;;;330.67;;
65037;SDS011;51605;47.040;15.294;2024-02-26T04:17:26;449.17;;;362.05;;
65037;SDS011;51605;47.040;15.294;2024-02-26T04:19:51;336.75;;;302.25;;
65037;SDS011;51605;47.040;15.294;2024-02-26T04:22:17;367.63;;;311.35;;
65037;SDS011;51605;47.040;15.294;2024-02-26T04:24:43;439.60;;;365.35;;
65037;SDS011;51605;47.040;15.294;2024-02-26T04:27:08;352.90;;;319.05;;
65037;SDS011;51605;47.040;15.294;2024-02-26T04:29:34;363.92;;;329.73;;
65037;SDS011;51605;47.040;15.294;2024-02-26T04:31:59;399.42;;;358.98;;
65037;SDS011;51605;47.040;15.294;2024-02-26T04:34:25;392.13;;;314.65;;
65037;SDS011;51605;47.040;15.294;2024-02-26T04:36:51;402.70;;;361.52;;
65037;SDS011;51605;47.040;15.294;2024-02-26T04:39:16;418.20;;;370.02;;
65037;SDS011;51605;47.040;15.294;2024-02-26T04:41:42;293.05;;;264.50;;
65037;SDS011;51605;47.040;15.294;2024-02-26T04:44:07;414.33;;;345.92;;
65037;SDS011;51605;47.040;15.294;2024-02-26T04:46:33;361.38;;;325.88;;
65037;SDS011;51605;47.040;15.294;2024-02-26T04:48:59;329.85;;;296.90;;
65037;SDS011;51605;47.040;15.294;2024-02-26T04:51:25;392.92;;;345.20;;
65037;SDS011;51605;47.040;15.294;2024-02-26T04:53:51;401.38;;;331.95;;
65037;SDS011;51605;47.040;15.294;2024-02-26T04:56:18;380.85;;;343.98;;
65037;SDS011;51605;47.040;15.294;2024-02-26T05:01:11;395.23;;;332.55;;
65037;SDS011;51605;47.040;15.294;2024-02-26T05:03:37;367.73;;;329.25;;
65037;SDS011;51605;47.040;15.294;2024-02-26T05:06:03;345.05;;;309.30;;
65037;SDS011;51605;47.040;15.294;2024-02-26T05:08:30;272.48;;;248.45;;
65037;SDS011;51605;47.040;15.294;2024-02-26T05:10:56;284.38;;;257.25;;
65037;SDS011;51605;47.040;15.294;2024-02-26T05:13:21;346.58;;;313.08;;
65037;SDS011;51605;47.040;15.294;2024-02-26T05:15:47;369.38;;;324.95;;
65037;SDS011;51605;47.040;15.294;2024-02-26T05:18:14;324.92;;;298.20;;
65037;SDS011;51605;47.040;15.294;2024-02-26T05:20:40;364.50;;;313.17;;
65037;SDS011;51605;47.040;15.294;2024-02-26T05:23:06;408.63;;;367.58;;
65037;SDS011;51605;47.040;15.294;2024-02-26T05:25:31;322.05;;;263.60;;
65037;SDS011;51605;47.040;15.294;2024-02-26T05:27:57;362.67;;;315.23;;
65037;SDS011;51605;47.040;15.294;2024-02-26T05:30:23;332.30;;;298.05;;
65037;SDS011;51605;47.040;15.294;2024-02-26T05:32:48;260.33;;;234.65;;
65037;SDS011;51605;47.040;15.294;2024-02-26T05:35:14;277.70;;;253.98;;
65037;SDS011;51605;47.040;15.294;2024-02-26T05:37:40;282.38;;;262.40;;
65037;SDS011;51605;47.040;15.294;2024-02-26T05:40:05;239.57;;;218.63;;
65037;SDS011;51605;47.040;15.294;2024-02-26T05:42:31;271.98;;;248.00;;
65037;SDS011;51605;47.040;15.294;2024-02-26T05:44:58;248.20;;;231.27;;
65037;SDS011;51605;47.040;15.294;2024-02-26T05:47:24;265.00;;;241.63;;
65037;SDS011;51605;47.040;15.294;2024-02-26T05:49:49;262.33;;;243.38;;
65037;SDS011;51605;47.040;15.294;2024-02-26T05:52:15;257.77;;;238.38;;
65037;SDS011;51605;47.040;15.294;2024-02-26T05:54:40;248.05;;;231.10;;
65037;SDS011;51605;47.040;15.294;2024-02-26T05:57:06;321.42;;;294.48;;
65037;SDS011;51605;47.040;15.294;2024-02-26T05:59:32;305.88;;;283.00;;
65037;SDS011;51605;47.040;15.294;2024-02-26T06:01:57;246.27;;;227.05;;
65037;SDS011;51605;47.040;15.294;2024-02-26T06:04:23;253.27;;;235.83;;
65037;SDS011;51605;47.040;15.294;2024-02-26T06:06:49;253.65;;;235.38;;
65037;SDS011;51605;47.040;15.294;2024-02-26T06:09:15;255.75;;;236.55;;
65037;SDS011;51605;47.040;15.294;2024-02-26T06:11:40;236.70;;;220.55;;
65037;SDS011;51605;47.040;15.294;2024-02-26T06:14:06;298.00;;;273.75;;
65037;SDS011;51605;47.040;15.294;2024-02-26T06:16:31;301.30;;;273.33;;
65037;SDS011;51605;47.040;15.294;2024-02-26T06:18:58;250.32;;;232.65;;
65037;SDS011;51605;47.040;15.294;2024-02-26T06:23:51;224.65;;;210.02;;
65037;SDS011;51605;47.040;15.294;2024-02-26T06:26:16;209.82;;;195.45;;
65037;SDS011;51605;47.040;15.294;2024-02-26T06:28:42;216.63;;;201.38;;
65037;SDS011;51605;47.040;15.294;2024-02-26T06:31:08;239.57;;;222.63;;
65037;SDS011;51605;47.040;15.294;2024-02-26T06:33:33;287.70;;;268.20;;
65037;SDS011;51605;47.040;15.294;2024-02-26T06:35:59;264.02;;;242.23;;
65037;SDS011;51605;47.040;15.294;2024-02-26T06:38:24;227.98;;;213.07;;
65037;SDS011;51605;47.040;15.294;2024-02-26T06:40:50;256.83;;;238.65;;
65037;SDS011;51605;47.040;15.294;2024-02-26T06:43:16;196.65;;;183.10;;
65037;SDS011;51605;47.040;15.294;2024-02-26T06:45:41;253.73;;;236.95;;
65037;SDS011;51605;47.040;15.294;2024-02-26T06:48:07;230.23;;;214.85;;
65037;SDS011;51605;47.040;15.294;2024-02-26T06:50:33;233.20;;;217.02;;
65037;SDS011;51605;47.040;15.294;2024-02-26T06:52:58;258.17;;;240.25;;
65037;SDS011;51605;47.040;15.294;2024-02-26T06:55:24;229.02;;;213.68;;
65037;SDS011;51605;47.040;15.294;2024-02-26T06:57:49;206.75;;;192.60;;
65037;SDS011;51605;47.040;15.294;2024-02-26T07:00:15;174.50;;;161.85;;
65037;SDS011;51605;47.040;15.294;2024-02-26T07:02:42;244.23;;;227.18;;
65037;SDS011;51605;47.040;15.294;2024-02-26T07:05:08;232.23;;;216.77;;
65037;SDS011;51605;47.040;15.294;2024-02-26T07:07:34;241.55;;;224.70;;
65037;SDS011;51605;47.040;15.294;2024-02-26T07:09:59;253.95;;;236.02;;
65037;SDS011;51605;47.040;15.294;2024-02-26T07:12:28;209.95;;;194.77;;
65037;SDS011;51605;47.040;15.294;2024-02-26T07:14:54;217.00;;;201.47;;
65037;SDS011;51605;47.040;15.294;2024-02-26T07:17:20;290.60;;;265.50;;
65037;SDS011;51605;47.040;15.294;2024-02-26T07:19:46;243.82;;;226.07;;
65037;SDS011;51605;47.040;15.294;2024-02-26T07:22:11;284.98;;;262.27;;
65037;SDS011;51605;47.040;15.294;2024-02-26T07:24:37;250.73;;;233.80;;
65037;SDS011;51605;47.040;15.294;2024-02-26T07:27:03;285.25;;;261.73;;
65037;SDS011;51605;47.040;15.294;2024-02-26T07:29:28;255.75;;;234.40;;
65037;SDS011;51605;47.040;15.294;2024-02-26T07:31:54;224.93;;;208.75;;
65037;SDS011;51605;47.040;15.294;2024-02-26T07:34:20;257.60;;;238.40;;
65037;SDS011;51605;47.040;15.294;2024-02-26T07:36:45;268.15;;;247.65;;
65037;SDS011;51605;47.040;15.294;2024-02-26T07:39:11;256.10;;;235.23;;
65037;SDS011;51605;47.040;15.294;2024-02-26T07:41:36;224.50;;;208.65;;
65037;SDS011;51605;47.040;15.294;2024-02-26T07:46:29;253.65;;;234.95;;
65037;SDS011;51605;47.040;15.294;2024-02-26T07:48:55;296.40;;;267.25;;
65037;SDS011;51605;47.040;15.294;2024-02-26T07:51:20;261.25;;;240.77;;
65037;SDS011;51605;47.040;15.294;2024-02-26T07:53:47;255.32;;;237.57;;
65037;SDS011;51605;47.040;15.294;2024-02-26T07:56:13;276.85;;;256.90;;
65037;SDS011;51605;47.040;15.294;2024-02-26T07:58:38;277.67;;;256.52;;
65037;SDS011;51605;47.040;15.294;2024-02-26T08:01:04;263.33;;;243.27;;
65037;SDS011;51605;47.040;15.294;2024-02-26T08:03:30;252.20;;;234.98;;
65037;SDS011;51605;47.040;15.294;2024-02-26T08:05:56;262.20;;;243.88;;
65037;SDS011;51605;47.040;15.294;2024-02-26T08:08:21;246.68;;;230.00;;
65037;SDS011;51605;47.040;15.294;2024-02-26T08:10:47;272.23;;;252.95;;
65037;SDS011;51605;47.040;15.294;2024-02-26T08:13:12;277.85;;;256.70;;
65037;SDS011;51605;47.040;15.294;2024-02-26T08:15:38;296.35;;;271.95;;
65037;SDS011;51605;47.040;15.294;2024-02-26T08:18:04;256.13;;;231.30;;
65037;SDS011;51605;47.040;15.294;2024-02-26T08:20:30;261.73;;;243.82;;
65037;SDS011;51605;47.040;15.294;2024-02-26T08:22:56;268.67;;;247.90;;
65037;SDS011;51605;47.040;15.294;2024-02-26T08:25:22;237.27;;;221.23;;
65037;SDS011;51605;47.040;15.294;2024-02-26T08:27:49;250.40;;;233.90;;
65037;SDS011;51605;47.040;15.294;2024-02-26T08:30:15;240.25;;;222.40;;
65037;SDS011;51605;47.040;15.294;2024-02-26T08:35:08;231.07;;;213.13;;
65037;SDS011;51605;47.040;15.294;2024-02-26T08:37:33;255.25;;;233.48;;
65037;SDS011;51605;47.040;15.294;2024-02-26T08:39:59;259.13;;;239.73;;
65037;SDS011;51605;47.040;15.294;2024-02-26T08:42:24;203.27;;;188.95;;
65037;SDS011;51605;47.040;15.294;2024-02-26T08:44:50;223.63;;;208.60;;
65037;SDS011;51605;47.040;15.294;2024-02-26T08:47:16;245.60;;;229.10;;
65037;SDS011;51605;47.040;15.294;2024-02-26T08:49:45;278.45;;;255.13;;
65037;SDS011;51605;47.040;15.294;2024-02-26T08:52:10;300.63;;;280.75;;
65037;SDS011;51605;47.040;15.294;2024-02-26T08:54:36;264.75;;;245.75;;
65037;SDS011;51605;47.040;15.294;2024-02-26T08:57:02;268.92;;;250.13;;
65037;SDS011;51605;47.040;15.294;2024-02-26T08:59:28;272.10;;;252.97;;
65037;SDS011;51605;47.040;15.294;2024-02-26T09:01:54;286.63;;;263.52;;
65037;SDS011;51605;47.040;15.294;2024-02-26T09:04:20;282.77;;;258.58;;
65037;SDS011;51605;47.040;15.294;2024-02-26T09:06:46;262.85;;;245.55;;
65037;SDS011;51605;47.040;15.294;2024-02-26T09:09:12;287.55;;;264.33;;
65037;SDS011;51605;47.040;15.294;2024-02-26T09:11:37;235.35;;;213.15;;
65037;SDS011;51605;47.040;15.294;2024-02-26T09:14:03;274.33;;;254.55;;
65037;SDS011;51605;47.040;15.294;2024-02-26T09:16:29;234.32;;;217.88;;
65037;SDS011;51605;47.040;15.294;2024-02-26T09:18:55;213.35;;;199.05;;
65037;SDS011;51605;47.040;15.294;2024-02-26T09:21:22;247.95;;;225.57;;
65037;SDS011;51605;47.040;15.294;2024-02-26T09:23:51;241.48;;;225.48;;
65037;SDS011;51605;47.040;15.294;2024-02-26T09:26:17;226.50;;;211.57;;
65037;SDS011;51605;47.040;15.294;2024-02-26T09:28:44;258.13;;;241.20;;
65037;SDS011;51605;47.040;15.294;2024-02-26T09:31:10;238.63;;;222.23;;
65037;SDS011;51605;47.040;15.294;2024-02-26T09:33:35;248.25;;;230.90;;
65037;SDS011;51605;47.040;15.294;2024-02-26T09:36:02;228.17;;;212.80;;
65037;SDS011;51605;47.040;15.294;2024-02-26T09:38:29;222.38;;;207.10;;
65037;SDS011;51605;47.040;15.294;2024-02-26T09:40:56;230.15;;;213.43;;
65037;SDS011;51605;47.040;15.294;2024-02-26T09:43:23;251.63;;;234.38;;
65037;SDS011;51605;47.040;15.294;2024-02-26T09:45:52;167.00;;;155.85;;
65037;SDS011;51605;47.040;15.294;2024-02-26T09:48:18;220.10;;;205.43;;
65037;SDS011;51605;47.040;15.294;2024-02-26T09:50:44;282.20;;;262.17;;
65037;SDS011;51605;47.040;15.294;2024-02-26T09:53:11;289.20;;;261.95;;
65037;SDS011;51605;47.040;15.294;2024-02-26T09:55:38;262.17;;;244.50;;
65037;SDS011;51605;47.040;15.294;2024-02-26T09:58:04;241.55;;;224.25;;
65037;SDS011;51605;47.040;15.294;2024-02-26T10:00:31;254.95;;;238.45;;
65037;SDS011;51605;47.040;15.294;2024-02-26T10:03:06;250.27;;;232.95;;
65037;SDS011;51605;47.040;15.294;2024-02-26T10:05:36;238.27;;;220.50;;
65037;SDS011;51605;47.040;15.294;2024-02-26T10:08:03;257.08;;;240.35;;
65037;SDS011;51605;47.040;15.294;2024-02-26T10:10:29;238.98;;;222.20;;
65037;SDS011;51605;47.040;15.294;2024-02-26T10:12:58;274.33;;;255.02;;
65037;SDS011;51605;47.040;15.294;2024-02-26T10:15:25;250.60;;;234.43;;
65037;SDS011;51605;47.040;15.294;2024-02-26T10:17:51;241.43;;;225.48;;
65037;SDS011;51605;47.040;15.294;2024-02-26T10:20:17;264.27;;;244.65;;
65037;SDS011;51605;47.040;15.294;2024-02-26T10:22:46;263.13;;;244.20;;
65037;SDS011;51605;47.040;15.294;2024-02-26T10:25:12;252.85;;;236.10;;
65037;SDS011;51605;47.040;15.294;2024-02-26T10:27:40;264.27;;;246.13;;
65037;SDS011;51605;47.040;15.294;2024-02-26T10:30:17;201.40;;;187.93;;
65037;SDS011;51605;47.040;15.294;2024-02-26T10:32:45;212.50;;;197.85;;
65037;SDS011;51605;47.040;15.294;2024-02-26T10:35:12;147.40;;;136.38;;
65037;SDS011;51605;47.040;15.294;2024-02-26T10:37:39;175.98;;;163.38;;
65037;SDS011;51605;47.040;15.294;2024-02-26T10:40:06;226.13;;;211.07;;
65037;SDS011;51605;47.040;15.294;2024-02-26T10:42:38;207.32;;;192.88;;
65037;SDS011;51605;47.040;15.294;2024-02-26T10:45:05;228.60;;;213.37;;
65037;SDS011;51605;47.040;15.294;2024-02-26T10:47:31;177.38;;;165.98;;
65037;SDS011;51605;47.040;15.294;2024-02-26T10:49:58;214.38;;;200.05;;
65037;SDS011;51605;47.040;15.294;2024-02-26T10:52:26;202.77;;;188.93;;
65037;SDS011;51605;47.040;15.294;2024-02-26T10:54:55;191.23;;;177.68;;
65037;SDS011;51605;47.040;15.294;2024-02-26T10:57:22;128.77;;;119.60;;
65037;SDS011;51605;47.040;15.294;2024-02-26T10:59:49;195.80;;;182.93;;
65037;SDS011;51605;47.040;15.294;2024-02-26T11:02:16;238.85;;;223.20;;
65037;SDS011;51605;47.040;15.294;2024-02-26T11:04:43;183.05;;;170.43;;
65037;SDS011;51605;47.040;15.294;2024-02-26T11:07:10;153.93;;;143.00;;
65037;SDS011;51605;47.040;15.294;2024-02-26T11:09:37;235.48;;;219.32;;
65037;SDS011;51605;47.040;15.294;2024-02-26T11:12:08;265.40;;;247.80;;
65037;SDS011;51605;47.040;15.294;2024-02-26T11:14:38;245.65;;;229.65;;
65037;SDS011;51605;47.040;15.294;2024-02-26T11:17:05;233.32;;;217.85;;
65037;SDS011;51605;47.040;15.294;2024-02-26T11:19:34;232.88;;;217.15;;
65037;SDS011;51605;47.040;15.294;2024-02-26T11:22:01;177.43;;;165.70;;
65037;SDS011;51605;47.040;15.294;2024-02-26T11:24:27;177.80;;;165.77;;
65037;SDS011;51605;47.040;15.294;2024-02-26T11:26:54;210.67;;;196.10;;
65037;SDS011;51605;47.040;15.294;2024-02-26T11:29:27;228.25;;;213.05;;
65037;SDS011;51605;47.040;15.294;2024-02-26T11:31:58;178.25;;;165.98;;
65037;SDS011;51605;47.040;15.294;2024-02-26T11:34:25;256.98;;;239.52;;
65037;SDS011;51605;47.040;15.294;2024-02-26T11:36:51;216.80;;;201.88;;
65037;SDS011;51605;47.040;15.294;2024-02-26T11:39:17;200.70;;;186.00;;
65037;SDS011;51605;47.040;15.294;2024-02-26T11:41:43;178.75;;;165.98;;
65037;SDS011;51605;47.040;15.294;2024-02-26T11:44:09;161.10;;;150.27;;
65037;SDS011;51605;47.040;15.294;2024-02-26T11:46:41;232.38;;;217.73;;
65037;SDS011;51605;47.040;15.294;2024-02-26T11:51:52;187.65;;;175.18;;
65037;SDS011;51605;47.040;15.294;2024-02-26T11:57:21;206.77;;;192.45;;
65037;SDS011;51605;47.040;15.294;2024-02-26T12:05:06;156.98;;;146.18;;
65037;SDS011;51605;47.040;15.294;2024-02-26T12:07:37;185.43;;;173.00;;
65037;SDS011;51605;47.040;15.294;2024-02-26T12:12:59;176.35;;;164.18;;
65037;SDS011;51605;47.040;15.294;2024-02-26T12:15:30;215.05;;;200.32;;
65037;SDS011;51605;47.040;15.294;2024-02-26T12:17:58;201.85;;;188.65;;
65037;SDS011;51605;47.040;15.294;2024-02-26T12:20:25;185.75;;;173.40;;
65037;SDS011;51605;47.040;15.294;2024-02-26T12:22:50;189.50;;;176.38;;
65037;SDS011;51605;47.040;15.294;2024-02-26T12:25:22;205.98;;;191.15;;
65037;SDS011;51605;47.040;15.294;2024-02-26T12:27:49;254.50;;;237.43;;
65037;SDS011;51605;47.040;15.294;2024-02-26T12:30:16;201.73;;;187.60;;
65037;SDS011;51605;47.040;15.294;2024-02-26T12:32:42;217.40;;;202.45;;
65037;SDS011;51605;47.040;15.294;2024-02-26T12:35:07;188.50;;;175.80;;
65037;SDS011;51605;47.040;15.294;2024-02-26T12:37:33;220.73;;;205.18;;
65037;SDS011;51605;47.040;15.294;2024-02-26T12:40:02;155.68;;;144.30;;
65037;SDS011;51605;47.040;15.294;2024-02-26T12:42:30;170.82;;;158.90;;
65037;SDS011;51605;47.040;15.294;2024-02-26T12:45:04;242.32;;;225.90;;
65037;SDS011;51605;47.040;15.294;2024-02-26T12:47:35;213.20;;;198.07;;
65037;SDS011;51605;47.040;15.294;2024-02-26T12:50:04;284.80;;;262.05;;
65037;SDS011;51605;47.040;15.294;2024-02-26T12:52:31;267.90;;;248.27;;
65037;SDS011;51605;47.040;15.294;2024-02-26T12:54:58;229.98;;;214.60;;
65037;SDS011;51605;47.040;15.294;2024-02-26T12:57:24;218.82;;;203.07;;
65037;SDS011;51605;47.040;15.294;2024-02-26T12:59:50;248.57;;;231.60;;
65037;SDS011;51605;47.040;15.294;2024-02-26T13:02:16;225.32;;;209.35;;
65037;SDS011;51605;47.040;15.294;2024-02-26T13:04:42;274.80;;;253.73;;
65037;SDS011;51605;47.040;15.294;2024-02-26T13:07:09;265.42;;;247.95;;
65037;SDS011;51605;47.040;15.294;2024-02-26T13:09:34;245.60;;;226.95;;
65037;SDS011;51605;47.040;15.294;2024-02-26T13:12:03;275.03;;;251.10;;
65037;SDS011;51605;47.040;15.294;2024-02-26T13:14:29;271.98;;;252.23;;
65037;SDS011;51605;47.040;15.294;2024-02-26T13:16:59;292.73;;;265.20;;
65037;SDS011;51605;47.040;15.294;2024-02-26T13:19:26;287.35;;;249.18;;
65037;SDS011;51605;47.040;15.294;2024-02-26T13:21:52;276.55;;;252.23;;
65037;SDS011;51605;47.040;15.294;2024-02-26T13:24:21;254.73;;;236.05;;
65037;SDS011;51605;47.040;15.294;2024-02-26T13:26:53;267.33;;;248.90;;
65037;SDS011;51605;47.040;15.294;2024-02-26T13:29:20;236.48;;;220.15;;
65037;SDS011;51605;47.040;15.294;2024-02-26T13:31:45;199.15;;;184.75;;
65037;SDS011;51605;47.040;15.294;2024-02-26T13:34:23;184.32;;;171.23;;
65037;SDS011;51605;47.040;15.294;2024-02-26T13:36:50;213.48;;;199.18;;
65037;SDS011;51605;47.040;15.294;2024-02-26T13:39:26;218.32;;;203.48;;
65037;SDS011;51605;47.040;15.294;2024-02-26T13:41:53;179.73;;;166.52;;
65037;SDS011;51605;47.040;15.294;2024-02-26T13:44:19;231.77;;;213.88;;
65037;SDS011;51605;47.040;15.294;2024-02-26T13:46:46;226.50;;;210.68;;
65037;SDS011;51605;47.040;15.294;2024-02-26T13:49:14;214.10;;;199.75;;
65037;SDS011;51605;47.040;15.294;2024-02-26T13:51:40;230.60;;;213.25;;
65037;SDS011;51605;47.040;15.294;2024-02-26T13:54:06;231.77;;;215.90;;
65037;SDS011;51605;47.040;15.294;2024-02-26T13:56:32;229.32;;;213.52;;
65037;SDS011;51605;47.040;15.294;2024-02-26T13:58:58;262.05;;;243.88;;
65037;SDS011;51605;47.040;15.294;2024-02-26T14:01:25;235.73;;;219.80;;
65037;SDS011;51605;47.040;15.294;2024-02-26T14:03:51;207.05;;;192.93;;
65037;SDS011;51605;47.040;15.294;2024-02-26T14:06:20;260.40;;;241.73;;